Time;durP1;ratioP1;P1;durP2;ratioP2;P2;SDS_P1;SDS_P2;PMS_P1;PMS_P2;Temp;Humidity;BMP_temperature;BMP_pressure;BME280_temperature;BME280_humidity;BME280_pressure;Samples;Min_cycle;Max_cycle;Signal;HPM_P1;HPM_P2
2021/08/22 00:01:40;;;;;;;18.57;9.60;;;;;;;18.74;68.25;100805.02;126350;1099;105326;-79
2021/08/22 00:04:11;;;;;;;19.13;9.50;;;;;;;18.76;68.24;100813.00;126324;1099;104140;-79
2021/08/22 00:06:42;;;;;;;19.63;10.33;;;;;;;18.74;68.17;100806.80;126255;1099;105170;-79
2021/08/22 00:09:12;;;;;;;21.67;10.03;;;;;;;18.75;68.37;100809.47;126353;1099;104293;-78
2021/08/22 00:11:43;;;;;;;19.97;9.73;;;;;;;18.71;68.32;100810.31;126296;1099;104336;-78
2021/08/22 00:14:14;;;;;;;19.67;9.40;;;;;;;18.66;68.20;100815.59;126244;1099;104207;-78
2021/08/22 00:16:46;;;;;;;21.57;9.87;;;;;;;18.64;68.51;100804.07;126264;1099;104143;-79
2021/08/22 00:19:17;;;;;;;20.70;10.00;;;;;;;18.63;68.57;100809.38;126341;1099;104166;-78
2021/08/22 00:21:47;;;;;;;22.90;10.27;;;;;;;18.60;68.28;100806.69;126328;1099;104208;-78
2021/08/22 00:24:18;;;;;;;20.27;9.53;;;;;;;18.60;68.77;100806.69;126315;1099;104149;-78
2021/08/22 00:26:48;;;;;;;18.30;9.55;;;;;;;18.59;68.77;100811.13;126282;1099;104171;-78
2021/08/22 00:29:19;;;;;;;20.70;10.27;;;;;;;18.60;69.11;100810.23;126323;1099;104172;-79
2021/08/22 00:31:50;;;;;;;19.37;10.30;;;;;;;18.58;68.76;100806.68;126311;1099;104156;-78
2021/08/22 00:34:20;;;;;;;20.20;10.10;;;;;;;18.55;68.94;100808.44;126328;1098;104139;-78
2021/08/22 00:36:54;;;;;;;20.37;10.10;;;;;;;18.49;69.09;100810.14;126189;1099;104316;-79
2021/08/22 00:39:26;;;;;;;22.20;10.30;;;;;;;18.43;68.74;100811.87;126255;1099;104296;-78
2021/08/22 00:41:56;;;;;;;22.33;11.03;;;;;;;18.36;69.53;100813.59;126341;1099;104220;-78
2021/08/22 00:44:27;;;;;;;21.77;10.33;;;;;;;18.30;69.26;100809.10;126287;1099;104174;-78
2021/08/22 00:46:59;;;;;;;22.23;11.00;;;;;;;18.25;69.66;100812.62;126291;1099;104206;-78
2021/08/22 00:49:39;;;;;;;22.10;10.27;;;;;;;18.20;69.79;100811.66;126298;1098;104325;-79
2021/08/22 00:52:10;;;;;;;21.07;9.83;;;;;;;18.17;69.81;100817.85;126253;1099;104139;-78
2021/08/22 00:54:43;;;;;;;21.70;10.03;;;;;;;18.14;70.42;100817.83;126269;1099;104165;-78
2021/08/22 00:57:16;;;;;;;21.75;9.70;;;;;;;18.09;70.41;100820.44;126236;1099;104131;-78
2021/08/22 00:59:48;;;;;;;20.30;9.20;;;;;;;18.03;70.30;100823.03;126379;1099;104159;-79
2021/08/22 01:02:26;;;;;;;17.90;8.93;;;;;;;17.99;70.77;100826.51;126323;1099;104149;-79
2021/08/22 01:05:06;;;;;;;18.53;9.50;;;;;;;17.93;70.83;100824.67;126327;1099;104236;-79
2021/08/22 01:07:43;;;;;;;22.27;9.63;;;;;;;17.89;70.79;100822.00;126226;1099;104149;-79
2021/08/22 01:10:17;;;;;;;20.50;9.65;;;;;;;17.85;70.76;100821.02;126330;1099;104168;-78
2021/08/22 01:12:56;;;;;;;19.33;9.10;;;;;;;17.84;70.83;100816.61;126309;1099;104143;-79
2021/08/22 01:15:29;;;;;;;22.23;9.67;;;;;;;17.84;70.82;100818.34;126303;1099;104144;-78
2021/08/22 01:18:04;;;;;;;19.37;9.50;;;;;;;17.82;70.72;100823.64;126284;1099;104139;-79
2021/08/22 01:20:43;;;;;;;21.40;9.27;;;;;;;17.83;70.40;100822.78;126306;1098;104335;-78
2021/08/22 01:23:16;;;;;;;21.07;9.30;;;;;;;17.82;70.91;100823.64;126334;1099;104150;-78
2021/08/22 01:25:47;;;;;;;18.30;9.05;;;;;;;17.83;70.95;100822.78;126345;1099;104147;-78
2021/08/22 01:28:19;;;;;;;18.13;8.87;;;;;;;17.84;70.84;100829.87;126261;1099;104133;-77
2021/08/22 01:30:54;;;;;;;21.90;9.23;;;;;;;17.83;71.24;100822.78;126341;1099;104243;-78
2021/08/22 01:33:28;;;;;;;18.47;8.93;;;;;;;17.81;71.19;100824.53;126310;1099;104242;-80
2021/08/22 01:36:00;;;;;;;19.63;8.50;;;;;;;17.77;71.38;100834.20;126348;1099;104149;-78
2021/08/22 01:38:30;;;;;;;17.47;8.63;;;;;;;17.75;71.00;100832.42;126296;1099;104218;-78
2021/08/22 01:41:01;;;;;;;19.50;9.43;;;;;;;17.75;71.18;100824.46;126265;1099;104312;-79
2021/08/22 01:43:33;;;;;;;16.53;8.33;;;;;;;17.76;71.44;100828.88;126328;1099;104159;-78
2021/08/22 01:46:06;;;;;;;19.43;8.97;;;;;;;17.73;71.27;100824.45;126338;1099;104284;-79
2021/08/22 01:48:40;;;;;;;19.30;8.97;;;;;;;17.71;71.47;100833.25;126277;1098;104140;-79
2021/08/22 01:51:11;;;;;;;21.60;9.50;;;;;;;17.69;71.46;100824.39;126328;1099;104143;-78
2021/08/22 01:53:42;;;;;;;18.30;9.57;;;;;;;17.66;71.58;100827.89;126297;1099;104238;-78
2021/08/22 01:56:13;;;;;;;20.10;9.40;;;;;;;17.66;71.49;100825.23;126309;1099;104450;-79
2021/08/22 01:58:44;;;;;;;20.40;9.20;;;;;;;17.65;71.99;100826.09;126239;1099;104140;-79
2021/08/22 02:01:16;;;;;;;18.87;9.17;;;;;;;17.60;71.86;100826.04;126350;1099;104175;-78
2021/08/22 02:03:51;;;;;;;19.77;9.70;;;;;;;17.59;71.97;100821.62;126337;1099;104317;-78
2021/08/22 02:06:25;;;;;;;18.83;9.90;;;;;;;17.57;72.37;100827.77;126271;1099;104188;-78
2021/08/22 02:09:00;;;;;;;18.93;9.50;;;;;;;17.52;72.21;100825.06;126285;1099;104242;-78
2021/08/22 02:11:43;;;;;;;19.93;9.30;;;;;;;17.46;72.15;100830.29;126328;1099;104688;-78
2021/08/22 02:14:16;;;;;;;18.23;9.27;;;;;;;17.43;72.59;100836.44;126366;1099;104229;-79
2021/08/22 02:16:49;;;;;;;18.10;8.93;;;;;;;17.39;72.42;100833.72;126358;1099;104171;-78
2021/08/22 02:19:22;;;;;;;20.60;10.27;;;;;;;17.36;72.61;100834.59;126241;1099;104322;-79
2021/08/22 02:21:54;;;;;;;22.67;10.07;;;;;;;17.33;72.54;100836.33;126297;1099;104248;-79
2021/08/22 02:24:26;;;;;;;22.62;10.45;;;;;;;17.32;72.52;100829.23;126331;1099;104242;-78
2021/08/22 02:26:57;;;;;;;24.23;9.77;;;;;;;17.32;72.72;100831.88;126322;1099;104268;-79
2021/08/22 02:29:28;;;;;;;23.67;10.10;;;;;;;17.31;72.81;100832.73;126280;1099;104152;-79
2021/08/22 02:31:59;;;;;;;21.00;9.63;;;;;;;17.31;72.71;100830.09;126276;1099;104153;-78
2021/08/22 02:34:29;;;;;;;21.40;9.93;;;;;;;17.33;72.63;100826.59;126342;1099;104149;-79
2021/08/22 02:37:00;;;;;;;19.73;9.63;;;;;;;17.38;72.36;100830.19;126267;1099;104165;-79
2021/08/22 02:39:31;;;;;;;19.47;9.20;;;;;;;17.39;72.70;100841.68;126291;1099;104198;-78
2021/08/22 02:42:02;;;;;;;22.03;10.03;;;;;;;17.35;72.67;100838.11;126301;1099;104147;-79
2021/08/22 02:44:33;;;;;;;18.30;9.17;;;;;;;17.34;72.97;100846.05;126268;1099;104136;-77
2021/08/22 02:47:04;;;;;;;19.80;9.20;;;;;;;17.32;72.87;100839.84;126320;1098;104155;-78
2021/08/22 02:49:35;;;;;;;20.17;9.50;;;;;;;17.29;72.94;100848.62;126302;1099;104285;-78
2021/08/22 02:52:05;;;;;;;21.43;9.77;;;;;;;17.24;72.85;100856.52;126358;1099;104197;-79
2021/08/22 02:54:36;;;;;;;22.73;10.60;;;;;;;17.21;72.98;100858.25;126282;1099;104153;-80
2021/08/22 02:57:36;;;;;;;23.03;10.50;;;;;;;17.16;73.81;100860.84;125267;1102;104163;-78
2021/08/22 03:00:08;;;;;;;22.53;10.33;;;;;;;17.11;73.14;100861.63;125200;1102;104194;-79
2021/08/22 03:02:39;;;;;;;23.93;10.47;;;;;;;17.05;73.86;100873.05;125247;1102;104150;-79
2021/08/22 03:05:11;;;;;;;19.77;10.17;;;;;;;17.00;73.59;100870.33;125016;1102;104242;-79
2021/08/22 03:07:41;;;;;;;20.87;10.47;;;;;;;16.93;74.24;100875.52;125155;1102;104619;-78
2021/08/22 03:10:14;;;;;;;20.53;10.63;;;;;;;16.90;73.32;100879.00;125188;1102;104245;-80
2021/08/22 03:12:45;;;;;;;19.80;10.70;;;;;;;16.87;73.93;100886.90;125024;1102;104216;-79
2021/08/22 03:15:16;;;;;;;21.57;10.43;;;;;;;16.85;74.92;100886.84;125034;1102;104216;-79
2021/08/22 03:17:46;;;;;;;20.50;9.77;;;;;;;16.79;74.16;100889.39;125162;1102;104224;-78
2021/08/22 03:20:19;;;;;;;21.07;10.10;;;;;;;16.77;74.40;100884.95;125185;1102;104153;-79
2021/08/22 03:22:50;;;;;;;25.27;10.13;;;;;;;16.76;74.35;100886.69;125076;1102;104207;-78
2021/08/22 03:25:22;;;;;;;22.17;9.87;;;;;;;16.78;74.89;100884.06;125011;1102;104211;-78
2021/08/22 03:27:52;;;;;;;20.03;9.33;;;;;;;16.79;74.81;100876.14;125144;1102;105547;-79
2021/08/22 03:30:23;;;;;;;22.40;9.77;;;;;;;16.82;74.04;100880.61;125185;1102;104152;-78
2021/08/22 03:32:54;;;;;;;21.37;9.23;;;;;;;16.83;74.54;100883.28;125085;1102;104338;-79
2021/08/22 03:35:25;;;;;;;18.97;9.00;;;;;;;16.88;74.70;100875.44;125209;1102;104701;-78
2021/08/22 03:37:55;;;;;;;21.33;10.13;;;;;;;16.93;73.95;100879.05;125129;1102;104264;-79
2021/08/22 03:40:27;;;;;;;19.27;9.20;;;;;;;16.97;74.08;100882.62;125177;1102;104249;-78
2021/08/22 03:43:00;;;;;;;16.57;8.97;;;;;;;16.99;73.77;100876.48;125174;1102;104152;-79
2021/08/22 03:45:31;;;;;;;19.87;8.97;;;;;;;17.02;74.10;100881.84;125139;1102;104318;-79
2021/08/22 03:48:04;;;;;;;20.03;9.00;;;;;;;17.06;73.96;100885.42;125073;1102;104188;-79
2021/08/22 03:50:35;;;;;;;17.03;8.93;;;;;;;17.08;74.49;100883.70;124995;1102;104294;-78
2021/08/22 03:53:05;;;;;;;19.43;8.63;;;;;;;17.12;73.78;100881.98;125227;1102;104281;-78
2021/08/22 03:55:36;;;;;;;20.23;9.00;;;;;;;17.16;73.74;100890.00;125179;1102;104246;-77
2021/08/22 03:58:07;;;;;;;16.83;8.13;;;;;;;17.21;74.09;100895.38;125137;1102;104309;-78
2021/08/22 04:00:37;;;;;;;17.10;8.60;;;;;;;17.22;73.76;100886.56;125191;1102;104153;-80
2021/08/22 04:03:08;;;;;;;19.23;9.20;;;;;;;17.28;74.49;100896.34;125223;1102;104197;-78
2021/08/22 04:05:50;;;;;;;18.50;9.27;;;;;;;17.30;74.27;100891.98;125172;1102;104146;-79
2021/08/22 04:08:25;;;;;;;21.03;8.67;;;;;;;17.30;74.09;100889.33;124995;1102;104207;-78
2021/08/22 04:10:56;;;;;;;17.67;8.57;;;;;;;17.32;74.33;100892.88;125055;1102;104405;-79
2021/08/22 04:13:27;;;;;;;19.53;9.70;;;;;;;17.33;74.30;100899.98;125181;1102;104137;-79
2021/08/22 04:15:58;;;;;;;18.90;8.77;;;;;;;17.34;74.44;100900.00;124973;1105;104175;-78
2021/08/22 04:18:28;;;;;;;18.97;10.17;;;;;;;17.32;74.12;100900.84;124985;1105;104187;-78
2021/08/22 04:21:00;;;;;;;19.07;9.43;;;;;;;17.32;74.08;100898.19;125012;1105;104217;-78
2021/08/22 04:23:32;;;;;;;19.33;9.63;;;;;;;17.33;74.88;100900.86;124993;1105;105524;-78
2021/08/22 04:26:03;;;;;;;21.57;9.73;;;;;;;17.37;74.55;100893.83;125018;1105;104341;-77
2021/08/22 04:28:34;;;;;;;20.07;9.90;;;;;;;17.40;74.88;100899.17;124969;1105;104254;-79
2021/08/22 04:31:05;;;;;;;18.63;9.90;;;;;;;17.40;74.94;100902.71;124999;1105;104296;-78
2021/08/22 04:33:36;;;;;;;18.55;9.00;;;;;;;17.43;74.33;100902.75;125028;1105;104182;-79
2021/08/22 04:36:07;;;;;;;19.17;9.23;;;;;;;17.47;75.03;100908.10;124977;1105;104323;-78
2021/08/22 04:38:38;;;;;;;19.67;9.63;;;;;;;17.50;74.60;100911.72;124966;1105;104358;-78
2021/08/22 04:41:08;;;;;;;19.37;10.00;;;;;;;17.55;75.02;100912.66;124991;1104;104256;-77
2021/08/22 04:43:39;;;;;;;19.40;9.60;;;;;;;17.64;74.87;100913.64;124988;1105;104220;-78
2021/08/22 04:46:09;;;;;;;18.90;9.37;;;;;;;17.70;74.87;100921.69;125013;1105;104300;-79
2021/08/22 04:48:40;;;;;;;18.65;9.25;;;;;;;17.76;74.67;100911.16;125076;1102;104146;-79
2021/08/22 04:51:11;;;;;;;18.83;8.90;;;;;;;17.81;74.59;100909.47;125184;1102;104267;-79
2021/08/22 04:53:41;;;;;;;21.07;9.90;;;;;;;17.86;74.73;100907.75;125171;1102;104195;-78
2021/08/22 04:56:12;;;;;;;18.80;9.50;;;;;;;17.93;74.53;100904.31;125029;1102;104146;-79
2021/08/22 04:58:44;;;;;;;20.67;9.30;;;;;;;18.01;74.71;100908.84;125095;1102;104204;-80
2021/08/22 05:01:15;;;;;;;18.07;9.20;;;;;;;18.08;74.82;100908.92;125129;1102;104344;-79
2021/08/22 05:03:45;;;;;;;17.03;8.40;;;;;;;18.15;74.69;100904.56;125021;1102;104160;-78
2021/08/22 05:06:17;;;;;;;18.93;9.40;;;;;;;18.21;74.61;100896.66;125157;1102;104222;-78
2021/08/22 05:08:48;;;;;;;19.43;10.00;;;;;;;18.28;74.69;100900.30;125182;1102;104195;-78
2021/08/22 05:11:18;;;;;;;23.00;9.33;;;;;;;18.36;74.47;100903.92;125211;1102;104162;-79
2021/08/22 05:13:49;;;;;;;19.03;9.30;;;;;;;18.43;74.32;100907.52;125127;1102;104168;-78
2021/08/22 05:16:22;;;;;;;19.13;8.77;;;;;;;18.50;73.98;100909.37;125171;1102;104245;-79
2021/08/22 05:18:52;;;;;;;20.55;9.55;;;;;;;18.57;73.98;100907.66;125152;1102;104312;-79
2021/08/22 05:21:23;;;;;;;19.00;9.10;;;;;;;18.62;74.13;100917.46;125141;1102;104158;-78
2021/08/22 05:23:54;;;;;;;18.43;9.33;;;;;;;18.65;73.95;100916.58;125002;1102;104169;-78
2021/08/22 05:26:26;;;;;;;16.57;8.50;;;;;;;18.69;74.08;100915.73;124986;1102;104325;-78
2021/08/22 05:28:56;;;;;;;18.40;8.70;;;;;;;18.74;73.89;100914.00;125146;1102;104146;-78
2021/08/22 05:31:27;;;;;;;22.27;9.27;;;;;;;18.80;73.70;100918.50;125198;1102;109099;-78
2021/08/22 05:33:58;;;;;;;16.70;8.23;;;;;;;18.86;74.18;100918.58;125254;1102;104152;-80
2021/08/22 05:36:28;;;;;;;17.37;8.30;;;;;;;18.95;73.55;100928.41;125171;1102;104223;-79
2021/08/22 05:38:59;;;;;;;18.47;9.10;;;;;;;19.02;73.93;100922.25;124975;1102;104315;-78
2021/08/22 05:41:30;;;;;;;17.27;8.20;;;;;;;19.09;73.48;100917.85;124978;1105;105203;-78
2021/08/22 05:44:01;;;;;;;19.63;8.10;;;;;;;19.16;73.54;100912.59;125143;1102;104146;-79
2021/08/22 05:46:33;;;;;;;19.87;7.87;;;;;;;19.24;73.15;100917.09;125014;1102;104277;-78
2021/08/22 05:49:03;;;;;;;15.63;8.33;;;;;;;19.30;73.55;100917.12;125007;1102;104229;-78
2021/08/22 05:51:34;;;;;;;16.37;8.03;;;;;;;19.35;73.28;100910.05;124939;1102;104431;-78
2021/08/22 05:54:05;;;;;;;17.63;8.27;;;;;;;19.42;73.13;100921.65;125143;1102;104184;-79
2021/08/22 05:56:35;;;;;;;15.90;7.93;;;;;;;19.49;73.02;100926.98;125169;1102;104156;-78
2021/08/22 05:59:06;;;;;;;16.57;8.30;;;;;;;19.57;72.87;100927.03;125148;1102;104201;-79
2021/08/22 06:01:37;;;;;;;18.37;8.47;;;;;;;19.65;72.71;100927.98;125099;1102;104750;-78
2021/08/22 06:04:07;;;;;;;18.43;8.80;;;;;;;19.70;72.41;100920.02;124918;1102;104316;-78
2021/08/22 06:06:41;;;;;;;16.40;7.87;;;;;;;19.76;72.07;100925.37;125288;1102;104159;-78
2021/08/22 06:09:11;;;;;;;14.73;7.70;;;;;;;19.81;72.72;100918.33;125278;1102;104780;-78
2021/08/22 06:11:42;;;;;;;16.73;8.50;;;;;;;19.86;72.24;100905.91;125228;1102;104191;-78
2021/08/22 06:14:13;;;;;;;15.77;8.00;;;;;;;19.94;71.67;100916.59;125302;1102;104158;-78
2021/08/22 06:16:43;;;;;;;16.57;8.30;;;;;;;19.99;71.15;100917.52;125306;1102;104300;-79
2021/08/22 06:19:14;;;;;;;17.17;8.10;;;;;;;20.04;71.41;100914.84;125319;1102;104188;-78
2021/08/22 06:21:45;;;;;;;17.00;7.90;;;;;;;20.11;70.75;100917.53;125268;1102;104178;-79
2021/08/22 06:24:15;;;;;;;17.57;8.17;;;;;;;20.19;71.30;100916.68;125270;1102;104145;-80
2021/08/22 06:26:47;;;;;;;16.77;8.73;;;;;;;20.28;70.95;100914.04;125285;1102;104229;-79
2021/08/22 06:29:19;;;;;;;16.87;8.53;;;;;;;20.34;70.80;100914.05;125289;1102;104140;-78
2021/08/22 06:31:50;;;;;;;20.20;7.80;;;;;;;20.41;70.33;100912.28;125281;1102;104172;-78
2021/08/22 06:34:21;;;;;;;15.80;8.07;;;;;;;20.48;71.00;100914.08;125220;1102;104150;-78
2021/08/22 06:36:52;;;;;;;15.77;7.93;;;;;;;20.57;71.01;100914.09;125289;1102;104162;-79
2021/08/22 06:39:22;;;;;;;14.97;7.73;;;;;;;20.68;70.29;100913.23;125243;1099;104143;-78
2021/08/22 06:41:53;;;;;;;15.70;8.23;;;;;;;20.76;70.09;100920.36;125744;1099;104297;-78
2021/08/22 06:44:23;;;;;;;17.80;8.70;;;;;;;20.86;69.97;100917.70;126343;1099;104181;-78
2021/08/22 06:46:54;;;;;;;18.07;8.13;;;;;;;20.96;69.86;100919.48;126310;1099;104182;-79
2021/08/22 06:49:25;;;;;;;20.50;9.10;;;;;;;21.08;69.41;100919.45;125234;1099;104143;-78
2021/08/22 06:51:56;;;;;;;16.03;8.27;;;;;;;21.19;69.62;100922.10;125701;1099;104328;-79
2021/08/22 06:54:27;;;;;;;18.27;8.07;;;;;;;21.32;69.46;100931.87;125178;1099;101808;-79
2021/08/22 06:56:57;;;;;;;16.23;6.80;;;;;;;21.47;69.43;100924.72;125225;1102;104705;-78
2021/08/22 06:59:28;;;;;;;18.13;7.77;;;;;;;21.60;68.81;100933.61;125211;1102;104163;-78
2021/08/22 07:01:59;;;;;;;18.20;7.47;;;;;;;21.75;68.90;100936.23;125198;1099;104223;-79
2021/08/22 07:04:29;;;;;;;15.23;7.57;;;;;;;21.90;67.92;100927.30;125241;1099;104191;-78
2021/08/22 07:07:00;;;;;;;14.43;7.57;;;;;;;22.07;67.99;100932.56;125141;1102;104162;-78
2021/08/22 07:09:30;;;;;;;12.73;6.97;;;;;;;22.20;67.13;100933.38;125314;1099;104264;-77
2021/08/22 07:12:01;;;;;;;12.13;6.70;;;;;;;22.33;67.22;100918.19;125151;1098;104242;-78
2021/08/22 07:14:32;;;;;;;11.10;6.20;;;;;;;22.50;67.09;100920.75;125245;1099;104225;-79
2021/08/22 07:17:02;;;;;;;13.67;6.33;;;;;;;22.63;64.79;100919.78;125215;1099;104274;-78
2021/08/22 07:19:34;;;;;;;12.17;6.27;;;;;;;22.79;65.19;100920.53;125234;1099;104169;-78
2021/08/22 07:22:04;;;;;;;12.13;6.10;;;;;;;23.00;64.38;100922.16;125210;1099;104213;-78
2021/08/22 07:24:35;;;;;;;12.03;5.67;;;;;;;23.16;63.61;100917.58;125250;1099;104213;-77
2021/08/22 07:27:06;;;;;;;10.37;5.70;;;;;;;23.33;62.85;100915.61;125213;1099;104213;-78
2021/08/22 07:29:37;;;;;;;9.80;5.60;;;;;;;23.44;61.83;100922.66;125203;1099;104146;-78
2021/08/22 07:32:08;;;;;;;13.00;6.47;;;;;;;23.57;59.96;100931.44;125133;1102;104200;-77
2021/08/22 07:34:41;;;;;;;9.50;5.63;;;;;;;23.69;60.46;100917.90;125267;1102;104226;-79
2021/08/22 07:37:12;;;;;;;12.80;6.17;;;;;;;23.79;60.50;100919.54;125205;1099;104152;-79
2021/08/22 07:39:43;;;;;;;12.50;6.47;;;;;;;23.92;60.64;100919.42;125191;1099;104143;-78
2021/08/22 07:42:13;;;;;;;12.23;5.70;;;;;;;24.05;60.23;100918.37;125222;1102;104152;-79
2021/08/22 07:44:44;;;;;;;10.67;5.57;;;;;;;24.12;60.13;100913.80;125115;1098;104152;-79
2021/08/22 07:47:14;;;;;;;11.20;5.23;;;;;;;24.28;59.28;100910.02;125259;1099;104243;-78
2021/08/22 07:49:45;;;;;;;10.63;5.90;;;;;;;24.48;58.91;100917.77;125202;1099;104178;-78
2021/08/22 07:52:16;;;;;;;10.30;6.17;;;;;;;24.65;57.31;100909.48;125228;1099;104225;-78
2021/08/22 07:54:47;;;;;;;11.13;5.77;;;;;;;24.76;57.24;100920.02;125230;1099;104159;-78
2021/08/22 07:57:18;;;;;;;10.63;5.80;;;;;;;24.93;56.64;100919.73;125188;1099;104293;-77
2021/08/22 07:59:49;;;;;;;10.23;5.70;;;;;;;25.04;56.81;100909.72;125234;1099;104146;-78
2021/08/22 08:02:20;;;;;;;12.43;5.73;;;;;;;25.18;56.39;100913.94;125237;1099;101825;-79
2021/08/22 08:04:51;;;;;;;12.87;5.57;;;;;;;25.11;55.57;100914.05;126360;1099;104163;-79
2021/08/22 08:07:23;;;;;;;11.53;5.93;;;;;;;25.25;55.29;100911.11;126313;1098;104165;-78
2021/08/22 08:09:53;;;;;;;13.40;5.70;;;;;;;25.34;54.73;100915.47;125383;1102;104296;-79
2021/08/22 08:12:24;;;;;;;9.47;5.40;;;;;;;25.37;55.24;100911.81;126247;1099;105694;-77
2021/08/22 08:14:54;;;;;;;8.87;4.60;;;;;;;25.38;53.88;100908.23;125175;1099;109436;-77
2021/08/22 08:17:26;;;;;;;7.83;4.80;;;;;;;25.46;54.08;100909.86;125283;1099;104149;-78
2021/08/22 08:19:56;;;;;;;8.23;4.63;;;;;;;25.61;54.30;100905.09;125295;1099;104188;-78
2021/08/22 08:22:30;;;;;;;8.98;5.22;;;;;;;25.67;52.68;100901.41;125242;1099;104245;-78
2021/08/22 08:25:01;;;;;;;13.77;5.20;;;;;;;25.68;52.99;100895.09;126223;1099;104153;-78
2021/08/22 08:27:31;;;;;;;8.13;4.63;;;;;;;25.76;52.74;100904.78;125129;1099;104370;-78
2021/08/22 08:30:02;;;;;;;9.87;4.77;;;;;;;25.84;51.85;100912.69;126324;1099;104281;-77
2021/08/22 08:32:32;;;;;;;7.97;4.70;;;;;;;25.83;51.33;100906.40;126316;1099;104252;-78
2021/08/22 08:35:03;;;;;;;6.63;4.50;;;;;;;25.91;50.81;100910.73;125157;1099;104322;-77
2021/08/22 08:37:33;;;;;;;7.83;4.33;;;;;;;25.95;50.56;100907.08;125199;1099;104249;-78
2021/08/22 08:40:05;;;;;;;6.93;4.33;;;;;;;26.01;49.80;100901.61;125262;1099;104210;-78
2021/08/22 08:42:36;;;;;;;8.25;4.60;;;;;;;26.06;49.70;100914.95;125217;1102;104290;-78
2021/08/22 08:45:08;;;;;;;9.37;4.40;;;;;;;26.11;48.08;100905.84;126049;1099;104248;-78
2021/08/22 08:47:39;;;;;;;;;;;;;;;26.04;47.69;100901.53;125222;1099;104139;-78
2021/08/22 08:50:14;;;;;;;7.50;4.57;;;;;;;26.00;47.31;100905.20;126342;1099;104188;-77
2021/08/22 08:52:52;;;;;;;9.03;4.43;;;;;;;25.97;47.65;100897.16;126323;1099;104139;-78
2021/08/22 08:55:27;;;;;;;7.57;4.40;;;;;;;25.99;47.63;100900.73;125358;1099;104172;-77
2021/08/22 08:57:59;;;;;;;7.47;4.47;;;;;;;25.95;47.58;100897.20;125269;1101;104236;-78
2021/08/22 09:00:33;;;;;;;8.03;4.00;;;;;;;25.88;46.34;100908.12;125171;1099;104296;-77
2021/08/22 09:03:03;;;;;;;8.90;4.47;;;;;;;25.93;47.46;100900.83;125178;1102;104146;-78
2021/08/22 09:05:52;;;;;;;8.03;4.27;;;;;;;25.95;47.80;100901.70;125198;1099;104246;-78
2021/08/22 09:08:44;;;;;;;7.93;4.40;;;;;;;26.00;46.99;100900.70;125281;1100;104156;-78
2021/08/22 09:11:41;;;;;;;8.07;3.87;;;;;;;26.01;46.18;100906.98;125216;1099;104813;-77
2021/08/22 09:14:39;;;;;;;6.80;4.07;;;;;;;26.04;46.33;100901.53;125135;1099;104309;-78
2021/08/22 09:17:36;;;;;;;6.00;3.80;;;;;;;26.09;46.21;100898.75;125179;1099;104245;-77
2021/08/22 09:20:31;;;;;;;6.80;3.90;;;;;;;26.22;45.97;100900.22;125241;1102;104207;-78
2021/08/22 09:23:29;;;;;;;7.87;4.00;;;;;;;26.28;44.71;100912.66;125173;1099;104197;-76
2021/08/22 09:26:26;;;;;;;6.13;3.70;;;;;;;26.37;44.35;100899.86;125138;1099;104396;-78
2021/08/22 09:29:19;;;;;;;6.85;3.80;;;;;;;26.50;43.15;100899.58;125207;1099;104134;-77
2021/08/22 09:32:16;;;;;;;6.40;3.93;;;;;;;26.65;43.26;100896.55;125245;1099;104201;-77
2021/08/22 09:35:14;;;;;;;4.90;3.90;;;;;;;26.74;42.63;100895.45;125127;1098;105384;-78
2021/08/22 09:38:12;;;;;;;6.30;3.90;;;;;;;26.76;41.72;100900.79;125224;1100;104201;-76
2021/08/22 09:41:07;;;;;;;6.10;4.07;;;;;;;26.78;42.47;100894.42;125218;1099;104213;-79
2021/08/22 09:44:01;;;;;;;7.20;4.37;;;;;;;26.87;42.11;100899.58;125247;1102;104249;-77
2021/08/22 09:46:57;;;;;;;7.13;4.07;;;;;;;26.81;42.05;100909.62;125168;1099;101842;-79
2021/08/22 09:49:54;;;;;;;7.93;4.10;;;;;;;26.71;41.55;100906.28;125230;1099;104178;-77
2021/08/22 09:52:52;;;;;;;7.20;3.80;;;;;;;26.64;41.53;100912.70;125198;1102;104232;-77
2021/08/22 09:55:47;;;;;;;6.53;4.10;;;;;;;26.50;40.47;100908.52;125211;1099;104211;-79
2021/08/22 09:58:42;;;;;;;5.87;3.93;;;;;;;26.53;40.88;100903.06;125271;1099;104156;-78
2021/08/22 10:01:37;;;;;;;5.35;3.90;;;;;;;26.58;40.73;100897.58;125240;1098;104206;-77
2021/08/22 10:04:28;;;;;;;4.57;3.40;;;;;;;26.53;40.30;100903.06;125178;1098;104181;-78
2021/08/22 10:07:08;;;;;;;5.40;3.40;;;;;;;26.54;40.39;100904.84;126210;1099;104172;-78
2021/08/22 10:09:44;;;;;;;9.27;3.63;;;;;;;26.51;40.15;100899.53;126290;1099;104143;-78
2021/08/22 10:12:16;;;;;;;7.37;3.37;;;;;;;26.60;40.49;100903.83;126306;1099;104137;-79
2021/08/22 10:14:47;;;;;;;5.17;3.33;;;;;;;26.66;39.91;100905.49;125217;1099;104146;-78
2021/08/22 10:17:22;;;;;;;7.80;3.60;;;;;;;26.68;39.32;100907.23;125226;1099;110204;-78
2021/08/22 10:19:53;;;;;;;6.13;3.50;;;;;;;26.68;39.44;100900.98;125300;1099;104182;-77
2021/08/22 10:22:36;;;;;;;6.13;3.70;;;;;;;26.72;39.70;100902.65;125237;1099;104143;-79
2021/08/22 10:25:09;;;;;;;6.13;3.70;;;;;;;26.71;39.57;100903.59;125237;1099;104826;-78
2021/08/22 10:27:54;;;;;;;6.12;3.77;;;;;;;26.69;39.37;100894.65;126312;1099;104165;-78
2021/08/22 10:30:29;;;;;;;5.50;3.20;;;;;;;26.70;38.65;100905.38;126334;1099;104197;-79
2021/08/22 10:33:15;;;;;;;7.80;3.90;;;;;;;26.73;38.57;100910.69;125371;1099;104298;-77
2021/08/22 10:35:45;;;;;;;5.63;3.27;;;;;;;26.77;38.93;100903.44;125160;1099;104211;-78
2021/08/22 10:38:27;;;;;;;5.60;3.33;;;;;;;26.75;38.04;100910.65;125160;1099;104181;-79
2021/08/22 10:40:59;;;;;;;7.13;4.00;;;;;;;26.68;38.74;100903.67;125215;1099;104152;-78
2021/08/22 10:43:42;;;;;;;5.87;3.97;;;;;;;26.63;38.67;100900.16;125237;1099;104143;-78
2021/08/22 10:46:16;;;;;;;6.78;4.10;;;;;;;26.62;39.39;100893.89;125205;1099;104152;-79
2021/08/22 10:48:56;;;;;;;6.63;4.10;;;;;;;26.76;39.54;100893.59;126340;1099;104215;-77
2021/08/22 10:51:27;;;;;;;7.70;4.40;;;;;;;26.98;39.87;100891.22;126303;1099;104149;-78
2021/08/22 10:54:22;;;;;;;8.40;4.50;;;;;;;27.04;40.06;100892.88;125403;1099;104904;-77
2021/08/22 10:56:52;;;;;;;5.85;4.30;;;;;;;27.16;40.36;100897.94;125743;1099;104331;-78
2021/08/22 10:59:23;;;;;;;7.37;4.57;;;;;;;27.32;39.89;100889.47;125257;1099;104245;-77
2021/08/22 11:02:11;;;;;;;9.67;4.40;;;;;;;27.41;40.00;100886.48;125193;1101;104137;-78
2021/08/22 11:04:41;;;;;;;6.97;4.07;;;;;;;27.43;39.91;100896.31;125177;1102;104322;-77
2021/08/22 11:07:12;;;;;;;8.07;4.13;;;;;;;27.44;39.21;100891.80;125721;1099;104198;-78
2021/08/22 11:09:45;;;;;;;7.77;4.33;;;;;;;27.58;38.89;100891.41;126358;1099;104184;-77
2021/08/22 11:12:27;;;;;;;8.08;4.20;;;;;;;27.67;38.97;100884.87;126346;1099;104146;-78
2021/08/22 11:15:00;;;;;;;7.73;4.13;;;;;;;27.76;39.08;100892.69;125252;1099;104319;-75
2021/08/22 11:17:31;;;;;;;5.77;4.17;;;;;;;27.74;38.19;100881.95;125607;1099;104159;-78
2021/08/22 11:20:12;;;;;;;5.90;3.90;;;;;;;27.76;38.88;100895.39;125243;1102;104137;-77
2021/08/22 11:22:44;;;;;;;7.77;4.60;;;;;;;27.71;38.29;100889.26;125183;1099;104227;-78
2021/08/22 11:25:14;;;;;;;6.53;4.50;;;;;;;27.72;39.06;100891.91;125250;1102;104258;-78
2021/08/22 11:27:47;;;;;;;8.73;4.73;;;;;;;27.74;39.27;100898.13;125836;1099;104149;-78
2021/08/22 11:30:16;;;;;;;;;;;;;;;27.66;39.35;100897.48;126357;1099;104153;-79
2021/08/22 11:32:56;;;;;;;9.33;4.40;;;;;;;27.60;39.08;100892.27;126350;1099;104204;-78
2021/08/22 11:35:27;;;;;;;7.40;4.20;;;;;;;27.50;39.16;100890.75;125184;1099;104168;-79